Time;durP1;ratioP1;P1;durP2;ratioP2;P2;SDS_P1;SDS_P2;PMS_P1;PMS_P2;Temp;Humidity;BMP_temperature;BMP_pressure;BME280_temperature;BME280_humidity;BME280_pressure;Samples;Min_cycle;Max_cycle;Signal;HPM_P1;HPM_P2
2021/09/06 00:02:06;;;;;;;18.77;10.48;;;;;;;17.37;52.31;102195.78;4967847;28;113870;-64
2021/09/06 00:04:34;;;;;;;18.15;9.95;;;;;;;17.32;52.67;102192.47;4961304;28;123972;-64
2021/09/06 00:07:02;;;;;;;19.80;10.48;;;;;;;17.26;52.69;102187.44;4958790;28;124300;-64
2021/09/06 00:09:31;;;;;;;17.13;9.65;;;;;;;17.20;52.86;102183.25;4961192;28;114184;-64
2021/09/06 00:11:59;;;;;;;17.58;9.88;;;;;;;17.16;52.93;102187.03;4987069;28;112904;-64
2021/09/06 00:14:26;;;;;;;19.17;10.45;;;;;;;17.14;53.04;102186.25;4966308;28;122999;-64
2021/09/06 00:16:54;;;;;;;18.58;9.45;;;;;;;17.11;52.93;102189.09;4972941;28;123028;-64
2021/09/06 00:19:23;;;;;;;18.38;9.32;;;;;;;17.09;53.15;102185.63;4971740;28;115095;-64
2021/09/06 00:21:52;;;;;;;18.45;9.88;;;;;;;17.06;52.95;102191.13;4966924;28;114847;-64
2021/09/06 00:24:20;;;;;;;19.30;10.80;;;;;;;17.05;52.92;102194.75;4963889;28;124368;-64
2021/09/06 00:26:47;;;;;;;15.98;9.55;;;;;;;17.02;53.07;102192.22;4965458;28;124240;-64
2021/09/06 00:29:15;;;;;;;17.52;9.70;;;;;;;16.99;53.20;102195.03;4965796;28;114655;-64
2021/09/06 00:31:42;;;;;;;17.65;10.30;;;;;;;16.94;53.16;102197.97;4968263;28;112883;-64
2021/09/06 00:34:11;;;;;;;18.08;9.88;;;;;;;16.87;53.24;102205.41;4968156;28;124387;-63
2021/09/06 00:36:38;;;;;;;16.33;8.95;;;;;;;16.82;53.19;102199.44;4978221;28;123187;-63
2021/09/06 00:39:05;;;;;;;17.10;9.00;;;;;;;16.78;53.20;102202.31;4982473;28;113176;-63
2021/09/06 00:41:33;;;;;;;16.67;9.27;;;;;;;16.72;53.14;102200.81;4962031;28;114203;-63
2021/09/06 00:44:03;;;;;;;19.08;9.63;;;;;;;16.69;53.21;102198.28;4969248;28;123438;-63
2021/09/06 00:46:30;;;;;;;16.40;9.15;;;;;;;16.67;53.29;102205.50;4952041;28;123240;-63
2021/09/06 00:48:57;;;;;;;19.35;10.52;;;;;;;16.63;53.47;102203.91;4962501;28;113416;-64
2021/09/06 00:51:24;;;;;;;16.95;10.02;;;;;;;16.61;53.55;102203.13;4969746;28;114099;-63
2021/09/06 00:53:51;;;;;;;18.80;10.10;;;;;;;16.60;53.61;102209.44;4965766;28;123087;-62
2021/09/06 00:56:19;;;;;;;17.35;9.80;;;;;;;16.59;53.70;102213.03;4981127;28;122921;-62
2021/09/06 00:58:47;;;;;;;16.55;9.68;;;;;;;16.58;53.88;102205.97;4969879;28;113035;-62
2021/09/06 01:01:14;;;;;;;16.23;9.55;;;;;;;16.55;53.82;102201.63;4987461;28;113073;-62
2021/09/06 01:03:43;;;;;;;20.52;10.43;;;;;;;16.52;54.03;102202.66;4958150;28;124256;-62
2021/09/06 01:06:24;;;;;;;17.98;10.27;;;;;;;16.51;54.17;102206.25;4962871;28;123413;-62
2021/09/06 01:09:02;;;;;;;17.83;10.43;;;;;;;16.50;54.21;102198.28;4962844;28;114257;-62
2021/09/06 01:11:43;;;;;;;21.65;10.50;;;;;;;16.51;53.97;102205.41;4960192;28;114344;-62
2021/09/06 01:14:24;;;;;;;18.67;9.90;;;;;;;16.48;54.01;102206.41;4964503;28;123971;-62
2021/09/06 01:16:52;;;;;;;19.17;10.18;;;;;;;16.48;54.20;102205.53;4968496;28;123876;-63
2021/09/06 01:19:19;;;;;;;19.48;10.48;;;;;;;16.47;54.17;102209.16;4967666;28;113407;-63
2021/09/06 01:21:50;;;;;;;17.63;9.52;;;;;;;16.44;54.08;102210.16;4960429;28;113552;-63
2021/09/06 01:24:40;;;;;;;17.67;9.77;;;;;;;16.41;53.97;102214.81;4964282;28;125725;-63
2021/09/06 01:27:14;;;;;;;17.15;9.05;;;;;;;16.39;53.99;102212.22;4969688;28;123144;-63
2021/09/06 01:29:44;;;;;;;17.25;9.70;;;;;;;16.37;53.98;102214.09;4967203;28;113432;-63
2021/09/06 01:32:13;;;;;;;16.75;9.57;;;;;;;16.34;54.10;102214.22;4970983;28;112917;-63
2021/09/06 01:34:45;;;;;;;18.45;9.80;;;;;;;16.30;54.12;102207.28;4970199;28;123643;-63
2021/09/06 01:37:12;;;;;;;17.27;9.70;;;;;;;16.29;54.07;102208.22;4968051;28;123306;-64
2021/09/06 01:39:46;;;;;;;17.38;9.57;;;;;;;16.26;54.01;102205.72;4986376;28;116560;-64
2021/09/06 01:42:14;;;;;;;16.80;9.68;;;;;;;16.23;53.81;102216.53;4972761;28;113114;-64
2021/09/06 01:44:41;;;;;;;18.95;9.70;;;;;;;16.20;54.06;102200.63;4967416;28;123207;-64
2021/09/06 01:47:12;;;;;;;20.67;10.10;;;;;;;16.16;53.95;102199.91;4968683;28;123008;-63
2021/09/06 01:49:40;;;;;;;18.05;10.52;;;;;;;16.12;54.05;102204.56;4951665;28;113444;-62
2021/09/06 01:52:07;;;;;;;19.23;9.98;;;;;;;16.12;54.16;102201.00;4966374;28;114321;-63
2021/09/06 01:54:35;;;;;;;18.42;10.00;;;;;;;16.08;54.12;102191.38;4967368;28;123736;-63
2021/09/06 01:57:04;;;;;;;17.75;10.35;;;;;;;16.05;54.02;102197.75;4957885;28;123844;-63
2021/09/06 01:59:31;;;;;;;18.15;9.73;;;;;;;16.02;54.32;102192.53;4961951;28;114145;-63
2021/09/06 02:01:59;;;;;;;19.08;9.50;;;;;;;16.00;54.19;102194.41;4965608;28;114036;-63
2021/09/06 02:04:34;;;;;;;17.67;9.93;;;;;;;15.95;54.45;102188.41;4983166;28;123078;-63
2021/09/06 02:07:01;;;;;;;18.85;9.55;;;;;;;15.93;54.40;102198.31;4967453;28;122851;-63
2021/09/06 02:09:29;;;;;;;16.30;8.90;;;;;;;15.91;54.39;102194.84;4957942;28;114420;-63
2021/09/06 02:11:56;;;;;;;15.50;8.68;;;;;;;15.89;54.21;102196.72;4983213;28;113439;-62
2021/09/06 02:14:23;;;;;;;17.30;8.98;;;;;;;15.86;54.17;102196.84;4970122;28;123252;-63
2021/09/06 02:16:52;;;;;;;16.20;8.82;;;;;;;15.83;54.07;102205.03;4981595;28;123051;-63
2021/09/06 02:19:30;;;;;;;13.27;7.82;;;;;;;15.76;54.23;102213.31;4964156;28;113213;-62
2021/09/06 02:21:57;;;;;;;16.90;8.60;;;;;;;15.72;54.25;102202.78;4982735;28;112788;-63
2021/09/06 02:24:26;;;;;;;14.85;8.57;;;;;;;15.67;54.17;102203.00;4965459;28;123471;-63
2021/09/06 02:27:00;;;;;;;13.05;7.93;;;;;;;15.60;54.01;102206.88;4966166;28;124145;-62
2021/09/06 02:29:29;;;;;;;13.60;7.82;;;;;;;15.53;53.98;102210.75;4975934;28;113251;-64
2021/09/06 02:32:31;;;;;;;12.00;6.60;;;;;;;15.46;54.17;102203.94;4961221;28;114111;-64
2021/09/06 02:35:16;;;;;;;12.00;6.85;;;;;;;15.40;54.48;102204.22;4964374;28;124730;-64
2021/09/06 02:37:44;;;;;;;12.52;6.95;;;;;;;15.37;54.31;102206.09;4969485;28;123244;-64
2021/09/06 02:40:16;;;;;;;11.90;6.88;;;;;;;15.35;54.31;102202.63;4966900;28;114502;-64
2021/09/06 02:42:46;;;;;;;12.50;6.47;;;;;;;15.32;54.44;102197.41;4964467;28;114486;-64
2021/09/06 02:45:14;;;;;;;13.32;7.97;;;;;;;15.29;54.51;102202.84;4964398;28;124240;-64
2021/09/06 02:47:47;;;;;;;13.10;7.65;;;;;;;15.27;54.59;102204.72;4980886;28;123015;-64
2021/09/06 02:50:16;;;;;;;14.18;7.40;;;;;;;15.25;54.64;102206.59;4981487;28;114206;-64
2021/09/06 02:52:45;;;;;;;12.88;7.47;;;;;;;15.23;54.62;102208.47;4976002;28;114859;-64
2021/09/06 02:55:15;;;;;;;12.90;7.38;;;;;;;15.22;54.75;102208.53;4982191;28;123397;-65
2021/09/06 02:57:45;;;;;;;12.45;7.38;;;;;;;15.19;54.66;102206.88;4959230;28;122817;-64
2021/09/06 03:00:13;;;;;;;13.00;7.45;;;;;;;15.19;54.64;102212.22;4964722;28;113715;-64
2021/09/06 03:02:41;;;;;;;13.32;7.30;;;;;;;15.15;54.80;102211.47;4967360;28;113545;-64
2021/09/06 03:05:09;;;;;;;12.77;7.30;;;;;;;15.13;54.83;102213.34;4971763;28;124357;-64
2021/09/06 03:07:42;;;;;;;13.68;7.88;;;;;;;15.12;54.83;102216.06;4985794;28;123152;-64
2021/09/06 03:10:10;;;;;;;12.73;7.63;;;;;;;15.11;54.81;102209.00;4978351;28;113427;-65
2021/09/06 03:12:38;;;;;;;14.77;7.70;;;;;;;15.10;54.71;102209.94;4966433;28;113604;-64
2021/09/06 03:15:05;;;;;;;14.18;7.40;;;;;;;15.07;54.79;102210.94;4954644;28;123501;-64
2021/09/06 03:17:34;;;;;;;13.05;7.68;;;;;;;15.06;54.75;102205.66;4988944;28;123003;-65
2021/09/06 03:20:03;;;;;;;15.63;7.43;;;;;;;15.04;54.89;102204.84;4987100;28;113442;-64
2021/09/06 03:22:33;;;;;;;12.38;7.30;;;;;;;15.01;54.87;102196.97;4972394;28;112892;-64
2021/09/06 03:25:01;;;;;;;14.63;8.35;;;;;;;14.97;55.16;102191.78;4954341;28;123081;-64
2021/09/06 03:27:31;;;;;;;13.07;7.20;;;;;;;14.98;55.19;102204.19;4971279;28;122479;-64
2021/09/06 03:30:02;;;;;;;14.60;7.97;;;;;;;14.97;54.94;102207.78;4974468;28;113487;-64
2021/09/06 03:32:33;;;;;;;14.07;7.68;;;;;;;14.93;54.85;102203.50;4972577;28;113332;-64
2021/09/06 03:35:01;;;;;;;20.77;9.75;;;;;;;14.87;54.71;102211.75;4969703;28;123773;-64
2021/09/06 03:37:29;;;;;;;17.70;9.18;;;;;;;14.80;54.59;102210.25;4972654;28;123176;-64
2021/09/06 03:40:05;;;;;;;17.90;8.50;;;;;;;14.73;54.66;102214.09;4968235;28;114017;-62
2021/09/06 03:42:32;;;;;;;16.02;8.38;;;;;;;14.66;54.64;102212.66;4967380;28;115140;-62
2021/09/06 03:45:01;;;;;;;19.35;9.48;;;;;;;14.57;54.81;102214.72;4974823;28;123243;-62
2021/09/06 03:47:28;;;;;;;18.65;9.43;;;;;;;14.52;54.86;102211.38;4980961;28;122901;-62
2021/09/06 03:50:00;;;;;;;16.23;8.80;;;;;;;14.49;55.04;102207.94;4989089;22;113795;-63
2021/09/06 03:52:30;;;;;;;17.95;9.32;;;;;;;14.46;55.16;102198.25;4953563;28;113081;-63
2021/09/06 03:54:57;;;;;;;14.38;8.23;;;;;;;14.44;55.20;102202.78;4966606;28;123452;-63
2021/09/06 03:57:26;;;;;;;15.98;8.45;;;;;;;14.43;55.40;102201.06;4956264;28;122994;-63
2021/09/06 03:59:55;;;;;;;15.13;8.45;;;;;;;14.41;55.40;102202.94;4961171;28;112992;-63
2021/09/06 04:02:22;;;;;;;16.80;8.77;;;;;;;14.41;55.47;102202.94;4951165;28;115264;-64
2021/09/06 04:04:54;;;;;;;14.50;8.52;;;;;;;14.40;55.57;102206.50;4963874;28;123220;-63
2021/09/06 04:07:23;;;;;;;17.25;9.40;;;;;;;14.40;55.47;102206.50;4968932;28;123072;-64
2021/09/06 04:09:55;;;;;;;15.73;8.63;;;;;;;14.41;55.47;102197.59;4964773;28;114270;-64
2021/09/06 04:12:22;;;;;;;16.00;8.43;;;;;;;14.42;55.68;102201.97;4952788;28;112913;-64
2021/09/06 04:14:51;;;;;;;13.60;7.85;;;;;;;14.41;55.59;102202.94;4963617;28;123542;-63
2021/09/06 04:17:19;;;;;;;16.48;8.52;;;;;;;14.41;55.51;102208.25;4950567;28;123539;-64
2021/09/06 04:19:47;;;;;;;14.63;8.07;;;;;;;14.41;55.69;102208.25;4935286;28;114012;-63
2021/09/06 04:22:14;;;;;;;15.50;8.75;;;;;;;14.41;55.59;102208.25;4967556;28;113226;-62
2021/09/06 04:24:47;;;;;;;17.00;8.73;;;;;;;14.40;55.49;102218.03;4951838;28;122925;-62
2021/09/06 04:27:16;;;;;;;14.52;8.23;;;;;;;14.41;55.48;102219.78;4970682;28;122683;-63
2021/09/06 04:29:44;;;;;;;14.20;7.88;;;;;;;14.39;55.48;102215.41;4953685;28;114589;-63
2021/09/06 04:32:14;;;;;;;18.65;8.02;;;;;;;14.37;55.56;102215.50;4969956;28;114190;-63
2021/09/06 04:34:41;;;;;;;15.75;8.02;;;;;;;14.34;55.57;102210.28;4967802;28;123229;-63
2021/09/06 04:37:09;;;;;;;16.17;8.68;;;;;;;14.32;55.47;102204.13;4969324;28;122781;-63
2021/09/06 04:39:41;;;;;;;16.60;8.48;;;;;;;14.32;55.53;102213.94;4950500;28;113567;-63
2021/09/06 04:42:09;;;;;;;16.42;7.95;;;;;;;14.31;55.58;102222.84;4952202;28;113817;-63
2021/09/06 04:44:36;;;;;;;19.77;9.27;;;;;;;14.29;55.34;102219.38;4938511;28;122128;-63
2021/09/06 04:47:05;;;;;;;17.50;9.15;;;;;;;14.26;55.57;102224.81;4967560;28;123174;-63
2021/09/06 04:49:33;;;;;;;15.75;8.35;;;;;;;14.23;55.49;102224.94;4951357;28;114634;-64
2021/09/06 04:52:06;;;;;;;16.75;8.65;;;;;;;14.19;55.57;102225.06;4950939;28;113331;-64
2021/09/06 04:54:33;;;;;;;17.58;8.90;;;;;;;14.15;55.49;102227.91;4966504;28;123220;-63
2021/09/06 04:57:01;;;;;;;16.10;8.75;;;;;;;14.10;55.47;102236.06;4938517;28;123345;-63
2021/09/06 04:59:29;;;;;;;15.50;8.48;;;;;;;14.06;55.44;102234.44;4950500;28;113626;-63
2021/09/06 05:01:56;;;;;;;14.63;8.65;;;;;;;14.02;55.70;102238.16;4952831;28;115468;-64
2021/09/06 05:04:24;;;;;;;16.45;8.10;;;;;;;13.98;55.63;102241.88;4966674;28;123967;-64
2021/09/06 05:06:54;;;;;;;14.43;8.40;;;;;;;13.95;55.95;102242.81;4967835;28;123167;-63
2021/09/06 05:09:22;;;;;;;12.95;7.53;;;;;;;13.95;56.06;102247.28;4967363;28;113965;-63
2021/09/06 05:11:51;;;;;;;13.60;8.07;;;;;;;13.93;56.11;102251.81;4968683;28;113202;-63
2021/09/06 05:14:19;;;;;;;13.40;7.78;;;;;;;13.94;56.07;102261.56;4967693;28;123243;-63
2021/09/06 05:16:48;;;;;;;15.68;7.63;;;;;;;13.93;56.22;102263.31;4948922;28;123120;-63
2021/09/06 05:19:15;;;;;;;14.32;8.35;;;;;;;13.93;56.15;102260.66;4949440;28;112988;-63
2021/09/06 05:21:43;;;;;;;13.90;8.20;;;;;;;13.94;56.43;102261.56;4968556;28;114058;-64
2021/09/06 05:24:11;;;;;;;15.43;8.02;;;;;;;13.93;56.39;102265.13;4950742;28;123237;-63
2021/09/06 05:26:38;;;;;;;13.75;7.15;;;;;;;13.95;56.42;102257.94;4965191;28;123227;-63
2021/09/06 05:29:05;;;;;;;11.52;7.13;;;;;;;13.97;56.53;102266.75;4950750;28;113947;-63
2021/09/06 05:31:32;;;;;;;9.35;6.00;;;;;;;14.00;56.66;102266.66;4953580;28;112949;-63
2021/09/06 05:33:59;;;;;;;10.25;6.45;;;;;;;14.03;56.71;102271.84;4952131;28;124359;-63
2021/09/06 05:36:27;;;;;;;13.25;7.68;;;;;;;14.04;56.73;102268.25;4967916;28;123047;-63
2021/09/06 05:38:57;;;;;;;13.88;7.60;;;;;;;14.05;56.67;102259.34;4951505;28;113477;-64
2021/09/06 05:41:25;;;;;;;16.35;8.45;;;;;;;14.08;56.69;102269.03;4952987;28;114795;-64
2021/09/06 05:43:52;;;;;;;15.77;8.02;;;;;;;14.08;56.69;102274.34;4950435;28;123315;-63
2021/09/06 05:46:23;;;;;;;14.27;7.95;;;;;;;14.08;56.92;102275.22;4949181;28;123000;-64
2021/09/06 05:48:50;;;;;;;12.63;7.07;;;;;;;14.10;56.86;102284.00;4966239;28;113429;-64
2021/09/06 05:51:17;;;;;;;10.55;6.95;;;;;;;14.10;57.00;102284.00;4967936;28;112586;-63
2021/09/06 05:53:57;;;;;;;13.98;6.70;;;;;;;14.14;57.00;102290.97;4964452;28;126695;-64
2021/09/06 05:56:25;;;;;;;14.55;7.03;;;;;;;14.15;57.02;102282.06;4969592;28;123121;-63
2021/09/06 05:58:55;;;;;;;17.13;7.97;;;;;;;14.19;57.15;102294.34;4954448;28;113923;-63
2021/09/06 06:01:25;;;;;;;18.52;7.50;;;;;;;14.24;57.36;102295.97;4951730;28;113227;-63
2021/09/06 06:03:53;;;;;;;13.82;7.75;;;;;;;14.27;57.50;102290.53;4968039;28;123308;-63
2021/09/06 06:06:25;;;;;;;12.52;8.00;;;;;;;14.32;57.59;102296.56;4951051;28;123013;-63
2021/09/06 06:08:56;;;;;;;12.00;6.93;;;;;;;14.37;57.67;102297.22;4965962;28;114927;-63
2021/09/06 06:11:24;;;;;;;14.93;8.15;;;;;;;14.44;57.69;102293.41;4963652;28;115144;-63
2021/09/06 06:13:51;;;;;;;12.02;7.28;;;;;;;14.50;57.86;102298.50;4951714;28;124078;-63
2021/09/06 06:16:20;;;;;;;11.68;6.93;;;;;;;14.58;57.96;102296.47;4965751;28;122644;-63
2021/09/06 06:18:48;;;;;;;13.07;8.20;;;;;;;14.68;58.11;102301.44;4964348;28;113211;-63
2021/09/06 06:21:19;;;;;;;12.07;7.75;;;;;;;14.78;58.23;102297.47;4946367;28;113091;-63
2021/09/06 06:24:09;;;;;;;13.18;7.82;;;;;;;14.90;58.23;102290.78;4949898;28;124269;-63
2021/09/06 06:26:40;;;;;;;13.15;7.88;;;;;;;15.02;58.42;102295.63;4965919;28;123163;-63
2021/09/06 06:29:11;;;;;;;12.35;8.20;;;;;;;15.14;58.72;102294.25;4955853;28;114106;-63
2021/09/06 06:31:40;;;;;;;17.95;10.60;;;;;;;15.28;58.98;102302.56;4950068;28;113206;-63
2021/09/06 06:34:09;;;;;;;17.42;11.00;;;;;;;15.43;59.04;102300.22;4954295;28;123267;-63
2021/09/06 06:36:38;;;;;;;20.38;11.48;;;;;;;15.55;59.02;102303.19;4969128;28;122328;-63
2021/09/06 06:39:14;;;;;;;20.67;11.88;;;;;;;15.69;59.29;102307.97;4952004;28;117439;-63
2021/09/06 06:41:47;;;;;;;22.20;11.75;;;;;;;15.82;59.41;102311.00;4969543;28;113381;-63
2021/09/06 06:44:14;;;;;;;25.02;12.50;;;;;;;15.96;59.71;102310.41;4952722;28;122930;-63
2021/09/06 06:46:42;;;;;;;23.38;12.43;;;;;;;16.10;59.89;102318.66;4952661;28;123556;-63
2021/09/06 06:49:10;;;;;;;23.25;12.80;;;;;;;16.26;59.88;102315.31;4954499;28;113444;-63
2021/09/06 06:51:37;;;;;;;27.73;12.95;;;;;;;16.42;60.02;102323.50;4968454;28;113687;-63
2021/09/06 06:54:06;;;;;;;25.90;13.50;;;;;;;16.63;60.02;102321.63;4953685;28;123730;-63
2021/09/06 06:56:37;;;;;;;23.10;12.55;;;;;;;16.83;60.15;102318.06;4963640;28;123037;-63
2021/09/06 06:59:08;;;;;;;22.90;12.70;;;;;;;17.02;60.32;102324.25;4954327;28;115083;-63
2021/09/06 07:01:35;;;;;;;23.98;12.98;;;;;;;17.23;60.36;102316.09;4955960;28;115208;-63
2021/09/06 07:04:04;;;;;;;23.52;13.27;;;;;;;17.41;60.28;102325.03;4956064;28;123233;-64
2021/09/06 07:06:35;;;;;;;24.23;13.10;;;;;;;17.57;59.98;102320.63;4954773;28;124001;-63
2021/09/06 07:09:02;;;;;;;23.27;12.15;;;;;;;17.74;59.70;102329.63;4966157;28;113337;-63
2021/09/06 07:11:32;;;;;;;23.05;13.32;;;;;;;17.88;59.81;102319.09;4954145;28;114104;-62
2021/09/06 07:14:02;;;;;;;24.33;13.85;;;;;;;18.01;59.68;102324.69;4970146;28;123372;-61
2021/09/06 07:16:29;;;;;;;23.88;12.88;;;;;;;18.15;59.84;102329.31;4936539;28;123479;-62
2021/09/06 07:18:56;;;;;;;27.20;14.25;;;;;;;18.31;59.60;102332.91;4954058;28;114121;-62
2021/09/06 07:21:24;;;;;;;24.88;13.93;;;;;;;18.45;59.77;102335.69;4953525;28;113357;-62
2021/09/06 07:23:53;;;;;;;23.10;12.73;;;;;;;18.60;59.66;102333.13;4954559;28;123326;-62
2021/09/06 07:26:20;;;;;;;26.15;12.82;;;;;;;18.78;59.69;102332.09;4950000;28;124716;-62
2021/09/06 07:28:50;;;;;;;26.50;13.40;;;;;;;18.98;59.62;102348.94;4970741;28;113752;-61
2021/09/06 07:31:17;;;;;;;23.17;13.15;;;;;;;19.14;59.57;102339.06;4969321;28;113578;-62
2021/09/06 07:33:45;;;;;;;23.75;13.18;;;;;;;19.33;58.96;102343.38;4951461;28;124295;-62
2021/09/06 07:36:12;;;;;;;23.65;13.35;;;;;;;19.45;58.85;102342.63;4952309;28;123464;-62
2021/09/06 07:38:39;;;;;;;24.33;14.07;;;;;;;19.56;58.58;102345.56;4964319;28;113491;-62
2021/09/06 07:41:07;;;;;;;26.15;13.65;;;;;;;19.68;58.88;102338.59;4957680;28;113014;-62
2021/09/06 07:43:38;;;;;;;26.60;13.77;;;;;;;19.82;58.80;102353.94;4952377;28;123627;-62
2021/09/06 07:46:06;;;;;;;24.92;13.90;;;;;;;20.01;58.73;102357.25;4955729;28;123495;-62
2021/09/06 07:48:34;;;;;;;23.58;13.43;;;;;;;20.19;58.72;102365.13;4952819;28;114465;-62
2021/09/06 07:51:01;;;;;;;24.80;13.70;;;;;;;20.38;58.65;102365.75;4954011;28;114533;-62
2021/09/06 07:53:29;;;;;;;23.10;13.68;;;;;;;20.54;58.06;102362.94;4954131;28;124564;-63
2021/09/06 07:55:58;;;;;;;25.98;14.93;;;;;;;20.66;57.88;102364.00;4972708;28;123214;-63
2021/09/06 07:58:30;;;;;;;24.15;14.15;;;;;;;20.77;58.15;102358.81;4956938;28;113384;-63
2021/09/06 08:00:58;;;;;;;25.13;13.63;;;;;;;20.92;58.30;102359.66;4970197;28;113280;-63
2021/09/06 08:03:26;;;;;;;25.65;15.38;;;;;;;21.12;58.27;102368.28;4950251;28;123149;-64
2021/09/06 08:05:55;;;;;;;22.38;13.98;;;;;;;21.30;58.04;102363.50;4966735;28;123164;-63
2021/09/06 08:08:23;;;;;;;25.70;14.80;;;;;;;21.47;57.63;102376.75;4954189;28;114029;-63
2021/09/06 08:10:52;;;;;;;27.08;15.45;;;;;;;21.64;57.35;102366.66;4954542;28;113342;-64
2021/09/06 08:13:28;;;;;;;27.20;15.18;;;;;;;21.76;57.43;102365.84;4966289;28;123799;-63
2021/09/06 08:15:56;;;;;;;25.50;15.20;;;;;;;21.91;57.04;102375.56;4954431;28;123930;-63
2021/09/06 08:18:23;;;;;;;24.40;14.88;;;;;;;22.03;56.89;102373.00;4958451;28;113347;-63
2021/09/06 08:20:53;;;;;;;24.15;14.88;;;;;;;22.15;56.96;102372.13;4957847;28;113469;-63
2021/09/06 08:23:22;;;;;;;25.65;14.75;;;;;;;22.30;56.60;102376.50;4955481;28;123189;-64
2021/09/06 08:25:53;;;;;;;25.05;14.68;;;;;;;22.44;56.51;102371.97;4955426;28;123674;-63
2021/09/06 08:28:20;;;;;;;23.73;13.80;;;;;;;22.58;56.34;102369.13;4952828;28;113424;-64
2021/09/06 08:30:47;;;;;;;21.88;13.48;;;;;;;22.66;55.78;102366.75;4969736;28;113436;-64
2021/09/06 08:33:17;;;;;;;25.05;14.63;;;;;;;22.72;55.37;102371.69;4955422;28;123068;-64
2021/09/06 08:35:47;;;;;;;24.65;13.60;;;;;;;22.77;55.37;102373.19;4957289;28;124012;-64
2021/09/06 08:38:16;;;;;;;22.30;13.27;;;;;;;22.84;55.56;102374.47;4958834;28;114862;-64
2021/09/06 08:40:47;;;;;;;22.55;14.60;;;;;;;22.97;55.41;102385.25;4960814;28;114109;-64
2021/09/06 08:43:15;;;;;;;23.90;13.95;;;;;;;23.10;55.62;102380.72;4952450;28;123259;-64
2021/09/06 08:45:42;;;;;;;21.73;13.68;;;;;;;23.24;55.28;102383.22;4952084;28;122821;-64
2021/09/06 08:48:10;;;;;;;20.98;13.48;;;;;;;23.34;54.71;102383.44;4952497;28;113536;-64
2021/09/06 08:50:39;;;;;;;22.50;13.75;;;;;;;23.41;54.66;102379.25;4955436;28;113358;-64
2021/09/06 08:53:07;;;;;;;20.77;13.43;;;;;;;23.50;54.00;102383.13;4968797;28;123262;-63
2021/09/06 08:55:39;;;;;;;23.33;13.20;;;;;;;23.54;53.83;102387.31;4967967;28;123141;-64
2021/09/06 08:58:25;;;;;;;21.67;12.88;;;;;;;23.58;53.79;102391.50;4966621;28;113307;-64
2021/09/06 09:00:56;;;;;;;22.80;12.82;;;;;;;23.62;53.64;102392.16;4953142;28;113341;-64
2021/09/06 09:03:50;;;;;;;20.13;12.23;;;;;;;23.70;53.54;102389.75;4937547;28;124531;-64
2021/09/06 09:06:38;;;;;;;21.15;12.73;;;;;;;23.80;53.87;102396.19;4947434;28;123588;-64
2021/09/06 09:09:36;;;;;;;21.77;12.57;;;;;;;23.93;53.52;102395.25;4943455;28;114809;-64
2021/09/06 09:12:20;;;;;;;20.38;12.27;;;;;;;24.05;53.45;102388.88;4954433;28;113124;-64
2021/09/06 09:15:19;;;;;;;21.60;12.80;;;;;;;24.15;52.77;102400.72;4959750;28;123785;-64
2021/09/06 09:18:10;;;;;;;22.00;12.77;;;;;;;24.21;52.75;102394.81;4941786;28;123994;-64
2021/09/06 09:21:11;;;;;;;19.17;11.80;;;;;;;24.28;52.28;102385.25;4954962;28;113310;-64
2021/09/06 09:23:50;;;;;;;17.27;11.23;;;;;;;24.32;51.90;102394.00;4954626;28;114575;-64
2021/09/06 09:26:28;;;;;;;16.95;10.63;;;;;;;24.40;51.69;102382.53;4952011;28;123205;-64
2021/09/06 09:29:19;;;;;;;20.33;10.98;;;;;;;24.51;52.02;102393.38;4949749;28;124146;-64
2021/09/06 09:31:56;;;;;;;19.55;11.02;;;;;;;24.66;51.93;102389.47;4953665;28;116608;-64
2021/09/06 09:34:42;;;;;;;16.65;10.88;;;;;;;24.82;52.03;102388.22;4948408;28;115083;-64
2021/09/06 09:37:28;;;;;;;17.40;10.57;;;;;;;24.97;51.45;102392.41;4950401;28;124100;-64
2021/09/06 09:40:05;;;;;;;17.30;9.95;;;;;;;25.08;51.02;102382.53;4951714;28;123903;-64
2021/09/06 09:42:49;;;;;;;19.33;9.90;;;;;;;25.19;51.07;102390.63;4949069;28;114350;-64
2021/09/06 09:45:24;;;;;;;17.95;10.77;;;;;;;25.30;50.32;102382.50;4949392;28;114750;-64
2021/09/06 09:48:11;;;;;;;17.83;10.30;;;;;;;25.38;50.59;102385.44;4950542;28;125006;-64
2021/09/06 09:50:38;;;;;;;16.08;9.90;;;;;;;25.48;50.16;102390.09;4952108;28;123466;-64
2021/09/06 09:53:06;;;;;;;16.90;10.02;;;;;;;25.55;49.78;102391.28;4950771;28;114529;-64
2021/09/06 09:55:36;;;;;;;17.30;10.38;;;;;;;25.61;49.47;102385.34;4980288;22;114431;-70
2021/09/06 09:58:04;;;;;;;17.08;10.13;;;;;;;25.67;49.17;102389.38;4959009;28;124189;-71
2021/09/06 10:00:31;;;;;;;16.60;10.23;;;;;;;25.72;48.40;102388.00;4973541;28;122965;-71
2021/09/06 10:03:03;;;;;;;15.98;9.98;;;;;;;25.75;48.86;102376.88;4971492;28;114242;-69
2021/09/06 10:05:34;;;;;;;17.02;9.23;;;;;;;25.80;48.65;102380.06;4970018;28;114273;-68
2021/09/06 10:08:09;;;;;;;16.73;9.77;;;;;;;25.88;48.12;102386.69;4972992;28;124053;-68
2021/09/06 10:10:39;;;;;;;16.55;9.43;;;;;;;25.96;47.87;102378.78;4973165;28;124565;-68
2021/09/06 10:13:07;;;;;;;17.58;9.63;;;;;;;26.00;47.57;102388.38;4973670;28;114325;-68
2021/09/06 10:15:39;;;;;;;15.73;9.48;;;;;;;26.05;47.72;102383.44;4974721;28;113910;-68
2021/09/06 10:18:18;;;;;;;14.85;9.10;;;;;;;26.10;47.69;102378.44;4979860;28;123038;-68
2021/09/06 10:20:49;;;;;;;16.33;9.60;;;;;;;26.21;47.53;102383.78;4969899;28;124388;-68
2021/09/06 10:23:19;;;;;;;17.77;9.60;;;;;;;26.30;47.45;102376.69;4970435;28;115580;-68
2021/09/06 10:25:49;;;;;;;16.85;10.50;;;;;;;26.38;46.66;102378.72;4962739;28;114647;-68
2021/09/06 10:28:18;;;;;;;16.90;9.40;;;;;;;26.44;46.55;102378.19;4964173;28;124195;-68
2021/09/06 10:30:51;;;;;;;16.08;10.27;;;;;;;26.47;46.61;102383.34;4970511;28;124300;-69
2021/09/06 10:33:37;;;;;;;16.27;9.77;;;;;;;26.55;46.63;102380.81;4972660;28;114179;-68
2021/09/06 10:36:10;;;;;;;18.05;9.35;;;;;;;26.65;46.24;102380.88;4964008;28;114138;-68
2021/09/06 10:39:03;;;;;;;17.30;9.40;;;;;;;26.74;46.64;102384.63;4955479;28;125142;-68
2021/09/06 10:41:30;;;;;;;15.60;10.15;;;;;;;26.82;46.36;102376.63;4969049;28;123145;-68
2021/09/06 10:44:07;;;;;;;19.60;10.63;;;;;;;26.89;46.37;102385.97;4971576;28;114612;-68
2021/09/06 10:46:34;;;;;;;17.83;10.70;;;;;;;26.97;46.22;102386.16;4969769;28;113884;-69
2021/09/06 10:49:05;;;;;;;17.17;9.77;;;;;;;27.04;46.16;102391.88;4970612;28;124567;-69
2021/09/06 10:51:37;;;;;;;14.18;8.85;;;;;;;27.12;45.68;102377.56;4967445;28;124089;-68
2021/09/06 10:54:07;;;;;;;15.63;9.57;;;;;;;27.21;45.25;102386.75;4970846;28;114368;-68
2021/09/06 10:56:36;;;;;;;16.20;9.32;;;;;;;27.29;45.04;102385.06;4965630;28;113672;-69
2021/09/06 10:59:04;;;;;;;12.60;7.57;;;;;;;27.35;44.48;102384.53;4968417;28;124273;-69
2021/09/06 11:01:33;;;;;;;12.45;7.35;;;;;;;27.43;44.34;102385.69;4971288;28;123939;-69
2021/09/06 11:04:01;;;;;;;12.82;8.05;;;;;;;27.49;43.75;102388.69;4987291;28;113897;-69
2021/09/06 11:06:30;;;;;;;12.52;7.28;;;;;;;27.53;43.50;102391.97;4969667;28;114053;-69
2021/09/06 11:09:00;;;;;;;11.25;6.55;;;;;;;27.58;43.27;102384.25;4970907;28;124796;-69
2021/09/06 11:11:31;;;;;;;13.05;6.85;;;;;;;27.62;42.87;102385.66;4970761;28;122079;-71
2021/09/06 11:14:00;;;;;;;12.20;7.53;;;;;;;27.65;42.33;102379.94;4958426;28;114240;-71
2021/09/06 11:16:36;;;;;;;9.23;6.03;;;;;;;27.63;41.87;102376.47;4972246;28;115337;-69
2021/09/06 11:19:13;;;;;;;9.10;6.18;;;;;;;27.64;41.39;102383.66;4969859;28;124331;-68
2021/09/06 11:21:41;;;;;;;11.48;6.75;;;;;;;27.66;41.54;102370.75;4972299;28;124032;-69
2021/09/06 11:24:12;;;;;;;14.27;8.00;;;;;;;27.71;42.01;102368.47;4975531;28;113324;-69